sensor_id;sensor_type;location;lat;lon;timestamp;pressure;altitude;pressure_sealevel;temperature;humidity
55317;BME280;41178;48.956;8.130;2023-04-16T00:04:51;99793.88;;;11.38;51.85
55317;BME280;41178;48.956;8.130;2023-04-16T00:09:53;99765.91;;;10.60;52.23
55317;BME280;41178;48.956;8.130;2023-04-16T00:14:54;99819.31;;;12.07;48.96
55317;BME280;41178;48.956;8.130;2023-04-16T00:19:56;99790.19;;;11.61;49.55
55317;BME280;41178;48.956;8.130;2023-04-16T00:24:58;99818.56;;;11.92;49.66
55317;BME280;41178;48.956;8.130;2023-04-16T00:29:59;99823.22;;;12.05;48.67
55317;BME280;41178;48.956;8.130;2023-04-16T00:35:01;99822.91;;;12.21;48.83
55317;BME280;41178;48.956;8.130;2023-04-16T00:40:03;99939.91;;;14.12;46.11
55317;BME280;41178;48.956;8.130;2023-04-16T00:45:06;99804.53;;;12.46;47.91
55317;BME280;41178;48.956;8.130;2023-04-16T00:50:08;99813.81;;;12.15;49.00
55317;BME280;41178;48.956;8.130;2023-04-16T00:55:10;99795.06;;;11.94;48.75
55317;BME280;41178;48.956;8.130;2023-04-16T01:00:13;99823.59;;;12.51;47.99
55317;BME280;41178;48.956;8.130;2023-04-16T01:05:15;99762.09;;;11.35;49.61
55317;BME280;41178;48.956;8.130;2023-04-16T01:10:17;99751.81;;;9.98;52.59
55317;BME280;41178;48.956;8.130;2023-04-16T01:15:19;99739.38;;;9.67;53.23
55317;BME280;41178;48.956;8.130;2023-04-16T01:20:20;99822.97;;;10.37;52.94
55317;BME280;41178;48.956;8.130;2023-04-16T01:25:22;99783.09;;;9.98;52.85
55317;BME280;41178;48.956;8.130;2023-04-16T01:30:24;99834.91;;;11.75;50.38
55317;BME280;41178;48.956;8.130;2023-04-16T01:35:26;99843.56;;;12.21;49.07
55317;BME280;41178;48.956;8.130;2023-04-16T01:40:27;99842.06;;;11.90;49.67
55317;BME280;41178;48.956;8.130;2023-04-16T01:45:33;99807.53;;;11.43;50.06
55317;BME280;41178;48.956;8.130;2023-04-16T01:50:35;99793.88;;;11.02;50.96
55317;BME280;41178;48.956;8.130;2023-04-16T01:55:36;99864.78;;;12.15;49.48
55317;BME280;41178;48.956;8.130;2023-04-16T02:00:38;99917.09;;;13.04;47.84
55317;BME280;41178;48.956;8.130;2023-04-16T02:05:40;99790.00;;;11.84;48.30
55317;BME280;41178;48.956;8.130;2023-04-16T02:10:44;99842.31;;;12.16;48.66
55317;BME280;41178;48.956;8.130;2023-04-16T02:15:47;99919.63;;;13.54;47.00
55317;BME280;41178;48.956;8.130;2023-04-16T02:20:49;99904.66;;;13.32;47.04
55317;BME280;41178;48.956;8.130;2023-04-16T02:25:51;99809.69;;;11.70;48.83
55317;BME280;41178;48.956;8.130;2023-04-16T02:30:53;99772.28;;;11.25;49.14
55317;BME280;41178;48.956;8.130;2023-04-16T02:35:54;99908.91;;;13.26;46.75
55317;BME280;41178;48.956;8.130;2023-04-16T02:40:56;99859.81;;;12.41;47.69
55317;BME280;41178;48.956;8.130;2023-04-16T02:45:58;99871.59;;;12.68;47.72
55317;BME280;41178;48.956;8.130;2023-04-16T02:51:01;99808.59;;;12.07;47.90
55317;BME280;41178;48.956;8.130;2023-04-16T02:56:02;99820.47;;;11.40;49.81
55317;BME280;41178;48.956;8.130;2023-04-16T03:01:04;99840.66;;;11.94;48.65
55317;BME280;41178;48.956;8.130;2023-04-16T03:06:06;99771.97;;;10.39;51.60
55317;BME280;41178;48.956;8.130;2023-04-16T03:11:08;99853.47;;;11.98;49.62
55317;BME280;41178;48.956;8.130;2023-04-16T03:16:09;99835.38;;;11.64;48.94
55317;BME280;41178;48.956;8.130;2023-04-16T03:21:11;99823.13;;;10.74;50.96
55317;BME280;41178;48.956;8.130;2023-04-16T03:26:13;99847.16;;;11.85;49.06
55317;BME280;41178;48.956;8.130;2023-04-16T03:31:14;99880.25;;;12.63;47.73
55317;BME280;41178;48.956;8.130;2023-04-16T03:36:16;99798.97;;;10.82;50.07
55317;BME280;41178;48.956;8.130;2023-04-16T03:41:18;99864.53;;;12.10;49.13
55317;BME280;41178;48.956;8.130;2023-04-16T03:46:20;99794.47;;;10.44;50.78
55317;BME280;41178;48.956;8.130;2023-04-16T03:51:21;99842.63;;;10.97;50.35
55317;BME280;41178;48.956;8.130;2023-04-16T03:56:23;99888.72;;;12.17;48.64
55317;BME280;41178;48.956;8.130;2023-04-16T04:01:25;99827.56;;;10.96;49.87
55317;BME280;41178;48.956;8.130;2023-04-16T04:06:27;99820.69;;;11.23;48.94
55317;BME280;41178;48.956;8.130;2023-04-16T04:11:28;99828.88;;;11.00;49.53
55317;BME280;41178;48.956;8.130;2023-04-16T04:16:31;99855.91;;;11.20;49.91
55317;BME280;41178;48.956;8.130;2023-04-16T04:21:33;99842.25;;;11.00;49.96
55317;BME280;41178;48.956;8.130;2023-04-16T04:26:34;99883.19;;;11.45;49.22
55317;BME280;41178;48.956;8.130;2023-04-16T04:31:36;99824.03;;;10.36;51.03
55317;BME280;41178;48.956;8.130;2023-04-16T04:36:38;99889.47;;;11.53;49.26
55317;BME280;41178;48.956;8.130;2023-04-16T04:41:39;99924.41;;;11.96;49.22
55317;BME280;41178;48.956;8.130;2023-04-16T04:46:41;99846.31;;;10.81;49.47
55317;BME280;41178;48.956;8.130;2023-04-16T04:51:43;99908.88;;;11.40;50.19
55317;BME280;41178;48.956;8.130;2023-04-16T04:56:44;99894.59;;;11.18;49.96
55317;BME280;41178;48.956;8.130;2023-04-16T05:01:47;99939.03;;;11.93;48.96
55317;BME280;41178;48.956;8.130;2023-04-16T05:06:49;99895.50;;;11.10;50.24
55317;BME280;41178;48.956;8.130;2023-04-16T05:11:50;99880.38;;;10.49;50.96
55317;BME280;41178;48.956;8.130;2023-04-16T05:16:52;99869.28;;;10.23;51.32
55317;BME280;41178;48.956;8.130;2023-04-16T05:21:54;99901.81;;;10.64;50.89
55317;BME280;41178;48.956;8.130;2023-04-16T05:26:56;99947.53;;;11.31;50.01
55317;BME280;41178;48.956;8.130;2023-04-16T05:31:58;99937.81;;;11.44;49.39
55317;BME280;41178;48.956;8.130;2023-04-16T05:36:59;99940.84;;;11.12;49.78
55317;BME280;41178;48.956;8.130;2023-04-16T05:42:01;99926.25;;;10.99;49.88
55317;BME280;41178;48.956;8.130;2023-04-16T05:47:03;100004.53;;;12.21;47.65
55317;BME280;41178;48.956;8.130;2023-04-16T05:52:05;99957.47;;;11.81;48.04
55317;BME280;41178;48.956;8.130;2023-04-16T05:57:07;100019.25;;;12.46;47.91
55317;BME280;41178;48.956;8.130;2023-04-16T06:02:09;100014.25;;;12.43;48.17
55317;BME280;41178;48.956;8.130;2023-04-16T06:07:11;99962.28;;;11.12;50.35
55317;BME280;41178;48.956;8.130;2023-04-16T06:12:12;100067.59;;;12.89;47.88
55317;BME280;41178;48.956;8.130;2023-04-16T06:17:14;100052.44;;;12.60;48.71
55317;BME280;41178;48.956;8.130;2023-04-16T06:22:17;100003.88;;;11.37;50.38
55317;BME280;41178;48.956;8.130;2023-04-16T06:27:18;100049.13;;;12.43;48.44
55317;BME280;41178;48.956;8.130;2023-04-16T06:32:20;99923.16;;;10.35;51.26
55317;BME280;41178;48.956;8.130;2023-04-16T06:37:22;99959.28;;;10.77;50.33
55317;BME280;41178;48.956;8.130;2023-04-16T06:42:23;99993.06;;;11.75;48.77
55317;BME280;41178;48.956;8.130;2023-04-16T06:47:25;100027.09;;;11.90;48.56
55317;BME280;41178;48.956;8.130;2023-04-16T06:52:28;100068.88;;;12.72;47.25
55317;BME280;41178;48.956;8.130;2023-04-16T06:57:29;99969.50;;;11.71;48.21
55317;BME280;41178;48.956;8.130;2023-04-16T07:02:31;99937.91;;;11.36;48.95
55317;BME280;41178;48.956;8.130;2023-04-16T07:07:33;99996.56;;;11.61;48.69
55317;BME280;41178;48.956;8.130;2023-04-16T07:12:35;99996.94;;;11.28;49.88
55317;BME280;41178;48.956;8.130;2023-04-16T07:17:36;100027.13;;;12.11;48.08
55317;BME280;41178;48.956;8.130;2023-04-16T07:22:38;99992.50;;;11.35;49.13
55317;BME280;41178;48.956;8.130;2023-04-16T07:27:40;99962.78;;;10.54;50.73
55317;BME280;41178;48.956;8.130;2023-04-16T07:32:41;99992.88;;;11.17;49.16
55317;BME280;41178;48.956;8.130;2023-04-16T07:37:43;99983.72;;;10.74;49.95
55317;BME280;41178;48.956;8.130;2023-04-16T07:42:45;99984.38;;;10.76;49.66
55317;BME280;41178;48.956;8.130;2023-04-16T07:47:47;99996.13;;;10.89;49.28
55317;BME280;41178;48.956;8.130;2023-04-16T07:52:48;100016.50;;;11.29;48.29
55317;BME280;41178;48.956;8.130;2023-04-16T07:57:50;100034.78;;;11.10;49.27
55317;BME280;41178;48.956;8.130;2023-04-16T08:02:52;100020.66;;;11.16;48.24
55317;BME280;41178;48.956;8.130;2023-04-16T08:07:54;100016.59;;;11.05;48.29
55317;BME280;41178;48.956;8.130;2023-04-16T08:12:56;99986.97;;;10.38;49.38
55317;BME280;41178;48.956;8.130;2023-04-16T08:17:58;100071.31;;;11.41;48.16
55317;BME280;41178;48.956;8.130;2023-04-16T08:23:00;100080.41;;;11.99;47.10
55317;BME280;41178;48.956;8.130;2023-04-16T08:28:01;100145.53;;;12.74;46.40
55317;BME280;41178;48.956;8.130;2023-04-16T08:33:03;100122.44;;;13.45;44.53
55317;BME280;41178;48.956;8.130;2023-04-16T08:38:05;100046.84;;;11.29;47.61
55317;BME280;41178;48.956;8.130;2023-04-16T08:43:11;99979.97;;;10.83;47.59
55317;BME280;41178;48.956;8.130;2023-04-16T08:48:14;100084.03;;;12.07;47.46
55317;BME280;41178;48.956;8.130;2023-04-16T08:53:17;100036.28;;;11.57;46.81
55317;BME280;41178;48.956;8.130;2023-04-16T08:58:21;100014.03;;;10.20;50.09
55317;BME280;41178;48.956;8.130;2023-04-16T09:03:23;100008.22;;;10.16;49.61
55317;BME280;41178;48.956;8.130;2023-04-16T09:08:25;100017.63;;;11.19;48.21
55317;BME280;41178;48.956;8.130;2023-04-16T09:13:27;100114.72;;;12.04;47.98
55317;BME280;41178;48.956;8.130;2023-04-16T09:18:29;100088.56;;;11.76;47.83
55317;BME280;41178;48.956;8.130;2023-04-16T09:23:31;100058.47;;;10.98;48.96
55317;BME280;41178;48.956;8.130;2023-04-16T09:28:43;100007.84;;;9.80;50.43
55317;BME280;41178;48.956;8.130;2023-04-16T09:34:05;100080.59;;;11.15;48.39
55317;BME280;41178;48.956;8.130;2023-04-16T09:39:17;100112.19;;;11.58;47.80
55317;BME280;41178;48.956;8.130;2023-04-16T09:44:34;100187.31;;;13.20;45.48
55317;BME280;41178;48.956;8.130;2023-04-16T09:49:42;100083.41;;;11.75;47.17
55317;BME280;41178;48.956;8.130;2023-04-16T09:54:52;100164.75;;;12.93;46.38
55317;BME280;41178;48.956;8.130;2023-04-16T10:00:00;100141.63;;;12.41;46.93
55317;BME280;41178;48.956;8.130;2023-04-16T10:05:02;100137.88;;;12.57;45.76
55317;BME280;41178;48.956;8.130;2023-04-16T10:10:04;100146.31;;;12.53;47.35
55317;BME280;41178;48.956;8.130;2023-04-16T10:15:06;100125.88;;;12.37;46.71
55317;BME280;41178;48.956;8.130;2023-04-16T10:20:08;100150.75;;;12.61;46.24
55317;BME280;41178;48.956;8.130;2023-04-16T10:25:10;100137.03;;;13.14;44.77
55317;BME280;41178;48.956;8.130;2023-04-16T10:30:14;100092.81;;;11.86;47.92
55317;BME280;41178;48.956;8.130;2023-04-16T10:35:19;100131.44;;;12.36;47.96
55317;BME280;41178;48.956;8.130;2023-04-16T10:40:23;100115.03;;;11.79;48.78
55317;BME280;41178;48.956;8.130;2023-04-16T10:45:28;100108.31;;;11.60;49.22
55317;BME280;41178;48.956;8.130;2023-04-16T10:50:34;100067.66;;;10.81;50.74
55317;BME280;41178;48.956;8.130;2023-04-16T10:55:37;100129.31;;;12.31;48.21
55317;BME280;41178;48.956;8.130;2023-04-16T11:06:32;100160.75;;;8.16;56.88
55317;BME280;41178;48.956;8.130;2023-04-16T11:11:37;100182.13;;;8.66;56.83
55317;BME280;41178;48.956;8.130;2023-04-16T11:16:40;100163.88;;;8.37;56.85
55317;BME280;41178;48.956;8.130;2023-04-16T11:21:43;100184.16;;;8.73;56.34
55317;BME280;41178;48.956;8.130;2023-04-16T11:26:50;100204.78;;;9.30;55.84
55317;BME280;41178;48.956;8.130;2023-04-16T11:31:52;100221.16;;;9.27;56.45
55317;BME280;41178;48.956;8.130;2023-04-16T11:36:54;100195.16;;;8.70;58.17
55317;BME280;41178;48.956;8.130;2023-04-16T11:41:56;100161.31;;;8.27;59.21
55317;BME280;41178;48.956;8.130;2023-04-16T11:47:04;100219.84;;;8.80;59.15
55317;BME280;41178;48.956;8.130;2023-04-16T11:52:06;100213.44;;;8.99;58.97
55317;BME280;41178;48.956;8.130;2023-04-16T11:57:08;100150.13;;;7.89;59.75
55317;BME280;41178;48.956;8.130;2023-04-16T12:02:09;100171.53;;;8.06;59.73
55317;BME280;41178;48.956;8.130;2023-04-16T12:07:12;100231.66;;;9.36;57.85
55317;BME280;41178;48.956;8.130;2023-04-16T12:12:27;100218.91;;;8.89;58.71
55317;BME280;41178;48.956;8.130;2023-04-16T12:17:32;100221.94;;;9.02;57.79
55317;BME280;41178;48.956;8.130;2023-04-16T12:22:37;100325.69;;;10.63;55.33
55317;BME280;41178;48.956;8.130;2023-04-16T12:27:50;100306.13;;;11.11;53.97
55317;BME280;41178;48.956;8.130;2023-04-16T12:33:14;100220.66;;;9.39;57.36
55317;BME280;41178;48.956;8.130;2023-04-16T12:38:16;100322.28;;;10.86;55.14
55317;BME280;41178;48.956;8.130;2023-04-16T12:43:19;100331.59;;;10.98;54.72
55317;BME280;41178;48.956;8.130;2023-04-16T12:48:21;100235.53;;;9.42;56.74
55317;BME280;41178;48.956;8.130;2023-04-16T12:53:23;100248.56;;;9.62;57.33
55317;BME280;41178;48.956;8.130;2023-04-16T12:58:24;100370.91;;;11.45;54.44
55317;BME280;41178;48.956;8.130;2023-04-16T13:03:26;100309.53;;;10.32;57.30
55317;BME280;41178;48.956;8.130;2023-04-16T13:08:29;100293.66;;;9.81;58.48
55317;BME280;41178;48.956;8.130;2023-04-16T13:13:31;100331.06;;;10.55;57.36
55317;BME280;41178;48.956;8.130;2023-04-16T13:18:34;100202.81;;;8.30;60.35
55317;BME280;41178;48.956;8.130;2023-04-16T13:23:39;100252.53;;;9.33;59.09
55317;BME280;41178;48.956;8.130;2023-04-16T13:28:41;100351.09;;;10.67;57.30
55317;BME280;41178;48.956;8.130;2023-04-16T13:33:43;100245.84;;;8.70;61.18
55317;BME280;41178;48.956;8.130;2023-04-16T13:38:44;100298.31;;;9.46;60.11
55317;BME280;41178;48.956;8.130;2023-04-16T13:43:46;100284.38;;;9.18;59.83
55317;BME280;41178;48.956;8.130;2023-04-16T13:48:48;100286.53;;;9.14;59.35
55317;BME280;41178;48.956;8.130;2023-04-16T13:53:50;100390.75;;;10.80;55.65
55317;BME280;41178;48.956;8.130;2023-04-16T13:58:51;100302.34;;;9.50;58.25
55317;BME280;41178;48.956;8.130;2023-04-16T14:03:53;100294.41;;;9.16;59.11
55317;BME280;41178;48.956;8.130;2023-04-16T14:08:56;100397.59;;;10.75;56.50
55317;BME280;41178;48.956;8.130;2023-04-16T14:13:58;100353.03;;;10.01;57.41
55317;BME280;41178;48.956;8.130;2023-04-16T14:18:59;100390.59;;;10.49;55.86
55317;BME280;41178;48.956;8.130;2023-04-16T14:24:02;100315.00;;;9.48;58.26
55317;BME280;41178;48.956;8.130;2023-04-16T14:29:04;100352.63;;;9.80;58.29
55317;BME280;41178;48.956;8.130;2023-04-16T14:34:05;100423.69;;;10.73;56.68
55317;BME280;41178;48.956;8.130;2023-04-16T14:39:07;100360.72;;;9.96;57.30
55317;BME280;41178;48.956;8.130;2023-04-16T14:44:10;100490.47;;;11.63;54.00
55317;BME280;41178;48.956;8.130;2023-04-16T14:49:11;100359.16;;;9.77;57.72
55317;BME280;41178;48.956;8.130;2023-04-16T14:54:14;100345.41;;;9.47;58.22
55317;BME280;41178;48.956;8.130;2023-04-16T14:59:16;100357.75;;;9.56;58.08
55317;BME280;41178;48.956;8.130;2023-04-16T15:04:18;100447.16;;;10.79;56.46
55317;BME280;41178;48.956;8.130;2023-04-16T15:09:20;100428.38;;;10.38;56.82
55317;BME280;41178;48.956;8.130;2023-04-16T15:14:21;100425.56;;;10.39;56.82
55317;BME280;41178;48.956;8.130;2023-04-16T15:19:24;100387.63;;;10.11;56.92
55317;BME280;41178;48.956;8.130;2023-04-16T15:24:28;100330.19;;;9.48;57.70
55317;BME280;41178;48.956;8.130;2023-04-16T15:29:30;100392.78;;;9.88;58.30
55317;BME280;41178;48.956;8.130;2023-04-16T15:34:32;100427.56;;;10.45;56.99
55317;BME280;41178;48.956;8.130;2023-04-16T15:39:33;100453.28;;;10.71;56.50
55317;BME280;41178;48.956;8.130;2023-04-16T15:44:35;100468.00;;;11.00;56.29
55317;BME280;41178;48.956;8.130;2023-04-16T15:49:37;100470.91;;;10.90;55.91
55317;BME280;41178;48.956;8.130;2023-04-16T15:54:39;100521.66;;;11.48;55.83
55317;BME280;41178;48.956;8.130;2023-04-16T15:59:41;100509.72;;;11.58;55.30
55317;BME280;41178;48.956;8.130;2023-04-16T16:04:48;100344.22;;;9.50;58.77
55317;BME280;41178;48.956;8.130;2023-04-16T16:09:50;100437.44;;;10.78;55.88
55317;BME280;41178;48.956;8.130;2023-04-16T16:14:53;100486.53;;;11.34;55.13
55317;BME280;41178;48.956;8.130;2023-04-16T16:19:57;100497.50;;;12.73;52.89
55317;BME280;41178;48.956;8.130;2023-04-16T16:24:59;100503.28;;;13.00;52.64
55317;BME280;41178;48.956;8.130;2023-04-16T16:30:01;100460.09;;;12.86;53.04
55317;BME280;41178;48.956;8.130;2023-04-16T16:35:06;100485.19;;;13.32;51.22
55317;BME280;41178;48.956;8.130;2023-04-16T16:40:09;100384.38;;;11.92;54.32
55317;BME280;41178;48.956;8.130;2023-04-16T16:45:12;100435.66;;;13.41;50.41
55317;BME280;41178;48.956;8.130;2023-04-16T16:50:14;100479.06;;;14.47;49.74
55317;BME280;41178;48.956;8.130;2023-04-16T16:55:16;100369.88;;;13.07;51.41
55317;BME280;41178;48.956;8.130;2023-04-16T17:00:19;100385.59;;;14.13;49.20
55317;BME280;41178;48.956;8.130;2023-04-16T17:05:22;100402.22;;;14.73;48.87
55317;BME280;41178;48.956;8.130;2023-04-16T17:10:23;100368.47;;;15.67;46.78
55317;BME280;41178;48.956;8.130;2023-04-16T17:15:25;100288.19;;;14.66;48.61
55317;BME280;41178;48.956;8.130;2023-04-16T17:20:27;100288.16;;;14.59;48.94
55317;BME280;41178;48.956;8.130;2023-04-16T17:25:29;100188.22;;;13.06;52.28
55317;BME280;41178;48.956;8.130;2023-04-16T17:30:31;100205.13;;;13.21;51.74
55317;BME280;41178;48.956;8.130;2023-04-16T17:35:32;100187.94;;;13.01;52.00
55317;BME280;41178;48.956;8.130;2023-04-16T17:40:34;100221.06;;;12.86;52.88
55317;BME280;41178;48.956;8.130;2023-04-16T17:45:36;100167.69;;;11.11;57.35
55317;BME280;41178;48.956;8.130;2023-04-16T17:50:38;100281.44;;;12.90;54.23
55317;BME280;41178;48.956;8.130;2023-04-16T17:55:49;100229.69;;;12.67;54.06
55317;BME280;41178;48.956;8.130;2023-04-16T18:00:51;100263.19;;;13.37;51.47
55317;BME280;41178;48.956;8.130;2023-04-16T18:05:53;100329.22;;;14.61;49.85
55317;BME280;41178;48.956;8.130;2023-04-16T18:10:55;100285.13;;;14.06;49.88
55317;BME280;41178;48.956;8.130;2023-04-16T18:15:57;100220.00;;;13.02;51.79
55317;BME280;41178;48.956;8.130;2023-04-16T18:20:59;100288.19;;;14.02;50.40
55317;BME280;41178;48.956;8.130;2023-04-16T18:26:01;100227.00;;;13.18;52.03
55317;BME280;41178;48.956;8.130;2023-04-16T18:31:02;100261.44;;;13.73;51.70
55317;BME280;41178;48.956;8.130;2023-04-16T18:36:07;100232.38;;;13.18;51.89
55317;BME280;41178;48.956;8.130;2023-04-16T18:41:18;100305.09;;;14.18;50.77
55317;BME280;41178;48.956;8.130;2023-04-16T18:46:20;100310.09;;;14.21;50.34
55317;BME280;41178;48.956;8.130;2023-04-16T18:51:22;100151.41;;;11.74;54.69
55317;BME280;41178;48.956;8.130;2023-04-16T18:56:23;100219.38;;;11.12;57.16
55317;BME280;41178;48.956;8.130;2023-04-16T19:01:25;100239.50;;;11.39;56.33
55317;BME280;41178;48.956;8.130;2023-04-16T19:06:27;100256.22;;;11.64;55.75
55317;BME280;41178;48.956;8.130;2023-04-16T19:11:29;100184.47;;;10.26;58.89
55317;BME280;41178;48.956;8.130;2023-04-16T19:16:31;100242.38;;;10.66;58.74
55317;BME280;41178;48.956;8.130;2023-04-16T19:21:34;100244.41;;;11.27;57.21
55317;BME280;41178;48.956;8.130;2023-04-16T19:26:35;100293.81;;;12.17;54.79
55317;BME280;41178;48.956;8.130;2023-04-16T19:31:37;100162.31;;;10.09;59.42
55317;BME280;41178;48.956;8.130;2023-04-16T19:36:39;100252.88;;;10.76;58.46
55317;BME280;41178;48.956;8.130;2023-04-16T19:41:41;100321.03;;;11.91;55.99
55317;BME280;41178;48.956;8.130;2023-04-16T19:46:43;100234.22;;;10.60;58.29
55317;BME280;41178;48.956;8.130;2023-04-16T19:51:45;100312.38;;;11.34;57.98
55317;BME280;41178;48.956;8.130;2023-04-16T19:56:48;100315.31;;;11.71;55.94
55317;BME280;41178;48.956;8.130;2023-04-16T20:01:52;100331.00;;;11.82;55.71
55317;BME280;41178;48.956;8.130;2023-04-16T20:06:53;100308.69;;;11.27;56.75
55317;BME280;41178;48.956;8.130;2023-04-16T20:11:55;100328.75;;;11.39;56.95
55317;BME280;41178;48.956;8.130;2023-04-16T20:16:58;100291.66;;;11.20;56.12
55317;BME280;41178;48.956;8.130;2023-04-16T20:22:00;100389.97;;;12.66;53.41
55317;BME280;41178;48.956;8.130;2023-04-16T20:27:02;100444.75;;;13.91;51.04
55317;BME280;41178;48.956;8.130;2023-04-16T20:32:04;100385.81;;;13.23;51.82
55317;BME280;41178;48.956;8.130;2023-04-16T20:37:06;100354.63;;;12.78;53.10
55317;BME280;41178;48.956;8.130;2023-04-16T20:42:08;100381.81;;;13.34;51.29
55317;BME280;41178;48.956;8.130;2023-04-16T20:47:13;100408.88;;;13.84;51.09
55317;BME280;41178;48.956;8.130;2023-04-16T20:52:15;100413.38;;;14.20;50.15
55317;BME280;41178;48.956;8.130;2023-04-16T20:57:17;100390.44;;;14.02;50.44
55317;BME280;41178;48.956;8.130;2023-04-16T21:02:19;100406.19;;;14.27;49.85
55317;BME280;41178;48.956;8.130;2023-04-16T21:07:21;100374.47;;;14.01;50.13
55317;BME280;41178;48.956;8.130;2023-04-16T21:12:23;100350.00;;;13.74;50.75
55317;BME280;41178;48.956;8.130;2023-04-16T21:17:24;100347.13;;;13.76;51.41
55317;BME280;41178;48.956;8.130;2023-04-16T21:22:26;100296.34;;;13.08;51.61
55317;BME280;41178;48.956;8.130;2023-04-16T21:27:28;100218.81;;;11.71;54.94
55317;BME280;41178;48.956;8.130;2023-04-16T21:32:29;100205.41;;;11.48;55.60
55317;BME280;41178;48.956;8.130;2023-04-16T21:37:31;100249.31;;;12.37;53.05
55317;BME280;41178;48.956;8.130;2023-04-16T21:42:33;100210.72;;;11.10;56.82
55317;BME280;41178;48.956;8.130;2023-04-16T21:47:44;100250.25;;;11.31;56.38
55317;BME280;41178;48.956;8.130;2023-04-16T21:52:46;100221.38;;;10.86;56.85
55317;BME280;41178;48.956;8.130;2023-04-16T21:57:47;100233.22;;;11.47;55.42
55317;BME280;41178;48.956;8.130;2023-04-16T22:02:49;100254.59;;;11.55;55.91
55317;BME280;41178;48.956;8.130;2023-04-16T22:07:52;100269.78;;;11.86;55.22
55317;BME280;41178;48.956;8.130;2023-04-16T22:12:53;100250.31;;;11.92;54.30
55317;BME280;41178;48.956;8.130;2023-04-16T22:17:55;100287.72;;;12.38;53.69
55317;BME280;41178;48.956;8.130;2023-04-16T22:22:57;100222.38;;;11.17;56.14
55317;BME280;41178;48.956;8.130;2023-04-16T22:27:59;100203.84;;;10.84;56.42
55317;BME280;41178;48.956;8.130;2023-04-16T22:33:02;100207.50;;;11.14;55.55
55317;BME280;41178;48.956;8.130;2023-04-16T22:38:04;100175.81;;;10.24;57.90
55317;BME280;41178;48.956;8.130;2023-04-16T22:43:06;100167.16;;;10.05;58.17
55317;BME280;41178;48.956;8.130;2023-04-16T22:48:07;100221.00;;;10.58;57.96
55317;BME280;41178;48.956;8.130;2023-04-16T22:53:09;100184.06;;;10.06;58.25
55317;BME280;41178;48.956;8.130;2023-04-16T22:58:11;100279.00;;;11.37;55.91
55317;BME280;41178;48.956;8.130;2023-04-16T23:03:13;100241.66;;;10.73;57.40
55317;BME280;41178;48.956;8.130;2023-04-16T23:08:15;100176.56;;;9.93;58.14
55317;BME280;41178;48.956;8.130;2023-04-16T23:13:16;100204.09;;;10.10;58.41
55317;BME280;41178;48.956;8.130;2023-04-16T23:18:18;100207.81;;;10.01;58.21
55317;BME280;41178;48.956;8.130;2023-04-16T23:23:20;100139.38;;;9.09;59.77
55317;BME280;41178;48.956;8.130;2023-04-16T23:28:22;100165.91;;;9.44;59.07
55317;BME280;41178;48.956;8.130;2023-04-16T23:33:23;100210.16;;;9.63;59.71
55317;BME280;41178;48.956;8.130;2023-04-16T23:38:25;100220.84;;;9.63;59.45
55317;BME280;41178;48.956;8.130;2023-04-16T23:43:27;100215.16;;;9.57;58.89
55317;BME280;41178;48.956;8.130;2023-04-16T23:48:29;100208.63;;;9.60;59.04
55317;BME280;41178;48.956;8.130;2023-04-16T23:53:30;100224.53;;;9.53;59.53
55317;BME280;41178;48.956;8.130;2023-04-16T23:58:32;100244.91;;;9.79;58.20
